createdAt,value
2022-08-05T00:00:20.673Z,74.41
2022-08-05T00:02:52.281Z,74.81
2022-08-05T00:06:02.612Z,75.13
2022-08-05T00:08:32.571Z,75.20
2022-08-05T00:11:01.344Z,74.75
2022-08-05T00:13:38.841Z,74.89
2022-08-05T00:16:12.846Z,74.53
2022-08-05T00:18:44.685Z,74.51
2022-08-05T00:21:14.774Z,74.75
2022-08-05T00:23:53.390Z,74.50
2022-08-05T00:26:33.885Z,74.41
2022-08-05T00:29:02.787Z,74.55
2022-08-05T00:31:53.255Z,74.37
2022-08-05T00:34:54.676Z,74.67
2022-08-05T00:37:14.258Z,74.54
2022-08-05T00:39:44.172Z,74.73
2022-08-05T00:42:36.957Z,74.74
2022-08-05T00:45:08.439Z,75.05
2022-08-05T00:47:56.854Z,74.83
2022-08-05T00:50:26.364Z,74.73
2022-08-05T00:52:57.625Z,74.64
2022-08-05T00:55:42.351Z,74.91
2022-08-05T00:58:14.011Z,74.78
2022-08-05T01:00:43.066Z,75.14
2022-08-05T01:03:22.654Z,74.98
2022-08-05T01:05:54.427Z,74.62
2022-08-05T01:08:39.899Z,74.51
2022-08-05T01:11:33.721Z,74.55
2022-08-05T01:14:28.328Z,74.51
2022-08-05T01:17:22.390Z,71.33
2022-08-05T01:20:01.881Z,66.46
2022-08-05T01:22:32.062Z,62.49
2022-08-05T01:25:23.723Z,60.43
2022-08-05T01:28:33.423Z,58.31
2022-08-05T01:31:13.333Z,56.03
2022-08-05T01:33:53.485Z,54.58
2022-08-05T01:36:28.406Z,53.45
2022-08-05T01:39:00.282Z,51.25
2022-08-05T01:41:36.696Z,51.30
2022-08-05T01:44:09.834Z,50.40
2022-08-05T01:46:46.304Z,50.69
2022-08-05T01:49:24.883Z,49.64
2022-08-05T01:52:01.087Z,50.18
2022-08-05T01:54:46.173Z,49.52
2022-08-05T01:58:11.072Z,48.03
2022-08-05T02:00:13.506Z,48.85
2022-08-05T02:02:55.400Z,46.46
2022-08-05T02:05:28.852Z,47.02
2022-08-05T02:08:01.372Z,48.08
2022-08-05T02:10:37.435Z,48.85
2022-08-05T02:13:16.050Z,46.58
2022-08-05T02:15:56.285Z,46.05
2022-08-05T02:18:35.032Z,45.97
2022-08-05T02:21:23.036Z,46.45
2022-08-05T02:23:55.974Z,46.00
2022-08-05T02:26:41.107Z,44.55
2022-08-05T02:29:26.107Z,45.92
2022-08-05T02:32:23.877Z,44.12
2022-08-05T02:35:13.579Z,44.55
2022-08-05T02:37:46.494Z,45.72
2022-08-05T02:40:18.174Z,42.62
2022-08-05T02:42:52.750Z,43.11
2022-08-05T02:45:28.677Z,44.12
2022-08-05T02:48:18.385Z,42.74
2022-08-05T02:50:51.196Z,42.44
2022-08-05T02:53:22.555Z,43.22
2022-08-05T02:56:00.036Z,42.70
2022-08-05T02:58:32.187Z,44.59
2022-08-05T03:01:03.342Z,42.34
2022-08-05T03:04:02.811Z,44.18
2022-08-05T03:06:55.672Z,44.17
2022-08-05T03:09:18.065Z,44.32
2022-08-05T03:12:05.736Z,41.64
2022-08-05T03:14:34.328Z,42.37
2022-08-05T03:17:14.495Z,42.83
2022-08-05T03:19:45.760Z,43.19
2022-08-05T03:22:16.533Z,42.47
2022-08-05T03:24:50.923Z,45.47
2022-08-05T03:27:21.809Z,42.58
2022-08-05T03:30:07.827Z,45.24
2022-08-05T03:32:38.807Z,43.36
2022-08-05T03:35:08.912Z,41.97
2022-08-05T03:37:46.427Z,42.50
2022-08-05T03:40:31.081Z,42.07
2022-08-05T03:43:59.131Z,41.48
2022-08-05T03:45:55.196Z,43.57
2022-08-05T03:48:29.225Z,41.65
2022-08-05T03:52:36.506Z,43.33
2022-08-05T03:55:52.580Z,42.75
2022-08-05T03:57:34.968Z,40.75
2022-08-05T04:00:15.997Z,41.40
2022-08-05T04:02:58.374Z,43.30
2022-08-05T04:05:40.116Z,42.32
2022-08-05T04:08:14.682Z,41.97
2022-08-05T04:11:02.738Z,41.77
2022-08-05T04:13:50.442Z,40.76
2022-08-05T04:16:24.217Z,42.11
2022-08-05T04:18:54.867Z,40.92
2022-08-05T04:22:09.703Z,41.39
2022-08-05T04:24:19.231Z,44.59
2022-08-05T04:26:51.803Z,42.69
2022-08-05T04:29:22.987Z,40.46
2022-08-05T04:31:51.882Z,40.74
2022-08-05T04:34:32.561Z,41.17
2022-08-05T04:37:03.241Z,39.45
2022-08-05T04:39:35.273Z,40.15
2022-08-05T04:42:04.772Z,40.94
2022-08-05T04:44:33.871Z,39.78
2022-08-05T04:47:09.154Z,39.35
2022-08-05T04:50:01.553Z,39.63
2022-08-05T04:52:29.023Z,39.66
2022-08-05T04:55:15.051Z,40.18
2022-08-05T04:57:51.461Z,39.23
2022-08-05T05:00:23.652Z,38.93
2022-08-05T05:02:52.740Z,39.78
2022-08-05T05:05:28.204Z,40.98
2022-08-05T05:08:14.104Z,40.00
2022-08-05T05:10:56.799Z,38.42
2022-08-05T05:13:26.172Z,40.01
2022-08-05T05:16:06.990Z,39.76
2022-08-05T05:18:38.952Z,40.37
2022-08-05T05:21:08.140Z,39.42
2022-08-05T05:24:01.613Z,37.17
2022-08-05T05:26:28.138Z,35.38
2022-08-05T05:29:01.365Z,37.13
2022-08-05T05:34:02.570Z,38.84
2022-08-05T05:36:32.747Z,35.06
2022-08-05T05:39:09.470Z,36.48
2022-08-05T05:41:39.985Z,37.06
2022-08-05T05:44:35.638Z,35.83
2022-08-05T05:46:57.998Z,36.96
2022-08-05T05:49:26.964Z,36.28
2022-08-05T05:51:56.170Z,37.67
2022-08-05T05:54:49.723Z,38.49
2022-08-05T05:57:19.052Z,35.43
2022-08-05T05:59:49.145Z,34.12
2022-08-05T06:02:32.362Z,37.60
2022-08-05T06:05:01.654Z,37.61
2022-08-05T06:07:41.994Z,36.99
2022-08-05T06:10:11.693Z,34.87
2022-08-05T06:12:43.763Z,34.52
2022-08-05T06:15:24.241Z,36.06
2022-08-05T06:17:54.674Z,36.65
2022-08-05T06:20:23.693Z,33.91
2022-08-05T06:22:52.411Z,34.85
2022-08-05T06:25:25.288Z,34.33
2022-08-05T06:28:21.349Z,34.91
2022-08-05T06:30:50.527Z,35.88
2022-08-05T06:33:19.607Z,35.09
2022-08-05T06:36:02.079Z,36.15
2022-08-05T06:38:36.477Z,36.06
2022-08-05T06:41:07.837Z,34.67
2022-08-05T06:43:59.755Z,36.46
2022-08-05T06:46:30.283Z,35.91
2022-08-05T06:49:01.081Z,36.77
2022-08-05T06:51:31.406Z,35.04
2022-08-05T06:54:02.789Z,35.60
2022-08-05T06:56:34.762Z,35.67
2022-08-05T06:59:09.547Z,36.37
2022-08-05T07:01:40.657Z,37.02
2022-08-05T07:04:11.164Z,36.63
2022-08-05T07:06:43.157Z,35.40
2022-08-05T07:09:11.796Z,36.81
2022-08-05T07:11:47.886Z,37.96
2022-08-05T07:14:38.314Z,34.34
2022-08-05T07:18:07.016Z,34.68
2022-08-05T07:20:31.481Z,34.73
2022-08-05T07:22:47.855Z,33.13
2022-08-05T07:25:54.417Z,34.37
2022-08-05T07:28:09.665Z,34.17
2022-08-05T07:30:43.248Z,35.20
2022-08-05T07:33:21.013Z,37.37
2022-08-05T07:36:19.889Z,38.10
2022-08-05T07:38:49.873Z,35.94
2022-08-05T07:42:08.401Z,35.81
2022-08-05T07:44:18.972Z,37.92
2022-08-05T07:46:50.334Z,34.75
2022-08-05T07:49:21.193Z,35.32
2022-08-05T07:51:54.456Z,35.89
2022-08-05T07:54:31.082Z,35.63
2022-08-05T07:57:17.890Z,36.08
2022-08-05T07:59:54.704Z,34.91
2022-08-05T08:02:31.209Z,35.52
2022-08-05T08:05:17.831Z,33.84
2022-08-05T08:07:59.209Z,33.93
2022-08-05T08:10:30.461Z,35.13
2022-08-05T08:12:59.531Z,34.99
2022-08-05T08:16:33.723Z,34.52
2022-08-05T08:18:20.894Z,36.35
2022-08-05T08:21:01.950Z,39.12
2022-08-05T08:24:01.884Z,37.41
2022-08-05T08:26:26.572Z,35.29
2022-08-05T08:29:21.823Z,32.31
2022-08-05T08:31:51.575Z,33.39
2022-08-05T08:34:30.626Z,34.12
2022-08-05T08:37:03.232Z,33.29
2022-08-05T08:39:37.572Z,34.59
2022-08-05T08:42:10.744Z,33.70
2022-08-05T08:45:22.360Z,34.04
2022-08-05T08:48:12.468Z,33.11
2022-08-05T08:51:03.870Z,34.10
2022-08-05T08:53:45.002Z,32.82
2022-08-05T08:56:14.179Z,33.82
2022-08-05T08:58:47.894Z,34.07
2022-08-05T09:01:19.048Z,33.17
2022-08-05T09:03:57.366Z,34.11
2022-08-05T09:06:32.143Z,34.19
2022-08-05T09:09:05.037Z,33.72
2022-08-05T09:11:53.637Z,34.13
2022-08-05T09:14:56.936Z,32.83
2022-08-05T09:17:41.144Z,34.91
2022-08-05T09:20:08.518Z,34.65
2022-08-05T09:23:19.484Z,33.63
2022-08-05T09:26:06.702Z,35.32
2022-08-05T09:28:39.904Z,33.26
2022-08-05T09:32:38.960Z,34.59
2022-08-05T09:34:09.657Z,32.25
2022-08-05T09:36:59.341Z,32.38
2022-08-05T09:39:41.614Z,33.88
2022-08-05T09:42:24.399Z,33.58
2022-08-05T09:45:17.814Z,33.54
2022-08-05T09:47:55.060Z,31.06
2022-08-05T09:50:43.829Z,32.25
2022-08-05T09:53:22.888Z,32.68
2022-08-05T09:56:04.744Z,32.27
2022-08-05T09:58:34.006Z,31.59
2022-08-05T10:01:14.709Z,33.19
2022-08-05T10:04:10.701Z,30.73
2022-08-05T10:06:59.051Z,32.25
2022-08-05T10:09:29.846Z,32.70
2022-08-05T10:12:30.120Z,34.27
2022-08-05T10:15:28.405Z,33.99
2022-08-05T10:18:17.666Z,33.96
2022-08-05T10:20:52.868Z,34.16
2022-08-05T10:23:55.664Z,35.01
2022-08-05T10:26:14.857Z,34.95
2022-08-05T10:28:46.491Z,33.61
2022-08-05T10:32:54.349Z,33.77
2022-08-05T10:34:08.095Z,35.28
2022-08-05T10:36:40.302Z,34.74
2022-08-05T10:39:15.482Z,34.57
2022-08-05T10:42:03.664Z,34.49
2022-08-05T10:44:33.429Z,35.83
2022-08-05T10:47:26.487Z,34.70
2022-08-05T10:50:28.047Z,34.33
2022-08-05T10:53:04.183Z,35.96
2022-08-05T10:56:03.826Z,36.58
2022-08-05T10:58:22.066Z,35.08
2022-08-05T11:01:08.262Z,35.03
2022-08-05T11:04:12.645Z,35.92
2022-08-05T11:07:05.143Z,35.07
2022-08-05T11:09:48.139Z,35.05
2022-08-05T11:12:41.251Z,35.41
2022-08-05T11:15:21.371Z,35.24
2022-08-05T11:17:59.746Z,34.40
2022-08-05T11:20:33.110Z,34.57
2022-08-05T11:23:06.106Z,34.03
2022-08-05T11:26:05.849Z,34.42
2022-08-05T11:28:36.185Z,35.66
2022-08-05T11:31:06.143Z,34.68
2022-08-05T11:33:47.840Z,35.05
2022-08-05T11:36:34.405Z,35.11
2022-08-05T11:39:09.752Z,36.08
2022-08-05T11:42:01.370Z,36.60
2022-08-05T11:44:41.142Z,35.62
2022-08-05T11:47:49.511Z,36.41
2022-08-05T11:50:14.237Z,36.31
2022-08-05T11:52:43.961Z,35.64
2022-08-05T11:55:15.609Z,35.34
2022-08-05T11:58:10.760Z,35.88
2022-08-05T12:00:38.447Z,36.03
2022-08-05T12:03:31.632Z,37.57
2022-08-05T12:06:06.702Z,37.08
2022-08-05T12:08:50.986Z,37.56
2022-08-05T12:11:39.765Z,36.98
2022-08-05T12:14:10.569Z,35.70
2022-08-05T12:16:45.623Z,36.61
2022-08-05T12:20:26.185Z,36.64
2022-08-05T12:22:09.490Z,35.65
2022-08-05T12:24:49.570Z,36.85
2022-08-05T12:27:32.858Z,37.87
2022-08-05T12:30:15.589Z,39.30
2022-08-05T12:32:51.846Z,38.38
2022-08-05T12:35:22.653Z,39.75
2022-08-05T12:37:53.342Z,38.32
2022-08-05T12:40:29.854Z,39.80
2022-08-05T12:42:59.732Z,39.20
2022-08-05T12:45:49.591Z,39.62
2022-08-05T12:48:27.398Z,38.99
2022-08-05T12:52:10.192Z,40.66
2022-08-05T12:54:16.673Z,39.89
2022-08-05T12:56:53.697Z,38.75
2022-08-05T12:59:46.723Z,39.68
2022-08-05T13:02:16.969Z,39.72
2022-08-05T13:04:54.356Z,39.54
2022-08-05T13:07:57.761Z,39.66
2022-08-05T13:10:19.951Z,39.44
2022-08-05T13:12:57.183Z,40.15
2022-08-05T13:15:36.051Z,39.85
2022-08-05T13:18:20.512Z,39.57
2022-08-05T13:20:50.315Z,39.87
2022-08-05T13:23:22.682Z,40.48
2022-08-05T13:25:59.206Z,40.40
2022-08-05T13:28:32.365Z,40.25
2022-08-05T13:31:10.875Z,40.69
2022-08-05T13:34:22.451Z,42.33
2022-08-05T13:36:32.198Z,41.18
2022-08-05T13:39:03.039Z,41.30
2022-08-05T13:41:52.513Z,42.11
2022-08-05T13:44:22.145Z,42.75
2022-08-05T13:47:02.483Z,41.99
2022-08-05T13:49:35.387Z,41.95
2022-08-05T13:52:19.947Z,42.59
2022-08-05T13:55:01.055Z,43.77
2022-08-05T13:57:51.331Z,42.34
2022-08-05T14:00:18.997Z,42.21
2022-08-05T14:03:01.032Z,41.71
2022-08-05T14:06:04.587Z,41.83
2022-08-05T14:08:20.894Z,41.84
2022-08-05T14:11:03.249Z,42.30
2022-08-05T14:13:48.140Z,42.50
2022-08-05T14:16:17.290Z,43.05
2022-08-05T14:18:50.465Z,44.13
2022-08-05T14:22:08.321Z,47.06
2022-08-05T14:24:11.736Z,47.00
2022-08-05T14:26:51.376Z,47.65
2022-08-05T14:29:31.301Z,48.90
2022-08-05T14:32:12.235Z,49.21
2022-08-05T14:34:48.665Z,50.54
2022-08-05T14:37:45.278Z,51.42
2022-08-05T14:40:16.669Z,52.40
2022-08-05T14:42:46.879Z,52.30
2022-08-05T14:45:17.925Z,52.75
2022-08-05T14:48:04.205Z,53.19
2022-08-05T14:50:36.081Z,53.71
2022-08-05T14:53:09.804Z,54.26
2022-08-05T14:55:40.081Z,53.98
2022-08-05T14:58:13.698Z,54.70
2022-08-05T15:00:58.459Z,54.54
2022-08-05T15:03:33.606Z,55.28
2022-08-05T15:06:07.563Z,55.02
2022-08-05T15:09:01.226Z,55.87
2022-08-05T15:11:51.809Z,55.63
2022-08-05T15:14:34.768Z,56.45
2022-08-05T15:17:09.889Z,57.01
2022-08-05T15:19:55.301Z,57.10
2022-08-05T15:22:27.087Z,57.27
2022-08-05T15:25:00.017Z,57.77
2022-08-05T15:27:42.722Z,57.91
2022-08-05T15:30:16.498Z,58.04
2022-08-05T15:32:45.276Z,58.48
2022-08-05T15:35:14.880Z,58.74
2022-08-05T15:38:32.798Z,59.02
2022-08-05T15:40:58.761Z,59.45
2022-08-05T15:43:21.938Z,59.65
2022-08-05T15:46:00.131Z,60.12
2022-08-05T15:48:30.783Z,60.45
2022-08-05T15:51:03.327Z,60.51
2022-08-05T15:53:38.563Z,60.98
2022-08-05T15:56:22.906Z,61.11
2022-08-05T15:58:54.447Z,61.58
2022-08-05T16:01:29.291Z,61.75
2022-08-05T16:03:58.488Z,61.99
2022-08-05T16:06:27.735Z,62.44
2022-08-05T16:08:56.756Z,62.55
2022-08-05T16:11:42.449Z,62.53
2022-08-05T16:14:17.499Z,62.90
2022-08-05T16:16:48.120Z,63.10
2022-08-05T16:19:25.627Z,63.28
2022-08-05T16:22:06.712Z,63.16
2022-08-05T16:24:40.574Z,62.89
2022-08-05T16:27:16.316Z,63.00
2022-08-05T16:29:50.450Z,62.30
2022-08-05T16:32:28.568Z,62.47
2022-08-05T16:35:03.452Z,62.94
2022-08-05T16:38:13.677Z,63.34
2022-08-05T16:40:26.464Z,63.22
2022-08-05T16:42:57.976Z,63.29
2022-08-05T16:46:06.894Z,63.59
2022-08-05T16:48:25.581Z,62.75
2022-08-05T16:50:55.708Z,63.14
2022-08-05T16:53:31.832Z,63.18
2022-08-05T16:56:01.582Z,63.39
2022-08-05T16:58:31.008Z,62.54
2022-08-05T17:01:00.655Z,62.99
2022-08-05T17:03:29.298Z,63.50
2022-08-05T17:06:01.246Z,63.41
2022-08-05T17:08:35.903Z,63.76
2022-08-05T17:11:28.106Z,63.94
2022-08-05T17:14:06.186Z,64.01
2022-08-05T17:16:37.176Z,64.29
2022-08-05T17:19:09.576Z,64.04
2022-08-05T17:21:42.647Z,64.15
2022-08-05T17:24:35.154Z,64.05
2022-08-05T17:27:09.357Z,64.66
2022-08-05T17:29:40.868Z,64.33
2022-08-05T17:32:11.527Z,64.80
2022-08-05T17:34:48.233Z,65.75
2022-08-05T17:37:41.473Z,65.44
2022-08-05T17:40:15.425Z,65.07
2022-08-05T17:42:49.749Z,66.95
2022-08-05T17:45:22.911Z,66.57
2022-08-05T17:47:55.751Z,66.92
2022-08-05T17:50:30.806Z,66.88
2022-08-05T17:53:02.258Z,67.23
2022-08-05T17:55:37.639Z,66.74
2022-08-05T17:58:12.609Z,66.73
2022-08-05T18:00:47.812Z,66.94
2022-08-05T18:06:12.341Z,66.65
2022-08-05T18:08:52.518Z,67.79
2022-08-05T18:11:24.626Z,68.08
2022-08-05T18:14:13.445Z,67.44
2022-08-05T18:16:46.806Z,67.53
2022-08-05T18:19:22.767Z,67.97
2022-08-05T18:22:08.775Z,68.84
2022-08-05T18:24:40.293Z,68.11
2022-08-05T18:27:12.824Z,68.30
2022-08-05T18:29:53.983Z,68.69
2022-08-05T18:32:27.957Z,68.52
2022-08-05T18:34:58.217Z,68.41
2022-08-05T18:37:34.151Z,68.36
2022-08-05T18:40:33.588Z,68.63
2022-08-05T18:42:59.792Z,69.27
2022-08-05T18:45:41.608Z,69.17
2022-08-05T18:48:12.017Z,68.89
2022-08-05T18:52:03.317Z,70.15
2022-08-05T18:54:10.671Z,70.79
2022-08-05T18:56:41.316Z,71.05
2022-08-05T18:59:43.523Z,70.01
2022-08-05T19:02:28.267Z,69.73
2022-08-05T19:06:05.762Z,69.75
2022-08-05T19:07:53.554Z,69.95
2022-08-05T19:10:26.583Z,70.55
2022-08-05T19:12:58.716Z,70.25
2022-08-05T19:15:59.323Z,70.96
2022-08-05T19:18:21.871Z,70.29
2022-08-05T19:20:56.515Z,70.51
2022-08-05T19:24:06.053Z,69.63
2022-08-05T19:26:15.471Z,70.39
2022-08-05T19:28:45.476Z,70.49
2022-08-05T19:31:17.772Z,70.06
2022-08-05T19:33:56.926Z,70.09
2022-08-05T19:36:26.940Z,70.42
2022-08-05T19:39:01.157Z,70.91
2022-08-05T19:41:58.232Z,70.67
2022-08-05T19:44:20.521Z,71.28
2022-08-05T19:46:50.346Z,71.16
2022-08-05T19:49:19.514Z,71.87
2022-08-05T19:52:08.628Z,71.60
2022-08-05T19:54:37.204Z,71.44
2022-08-05T19:57:09.522Z,71.79
2022-08-05T19:59:56.405Z,72.50
2022-08-05T20:02:31.680Z,71.95
2022-08-05T20:05:00.535Z,71.82
2022-08-05T20:07:47.965Z,72.26
2022-08-05T20:10:22.317Z,72.74
2022-08-05T20:12:53.037Z,72.54
2022-08-05T20:15:23.246Z,72.64
2022-08-05T20:18:33.103Z,72.95
2022-08-05T20:21:00.300Z,72.12
2022-08-05T20:23:39.702Z,71.84
2022-08-05T20:26:19.131Z,72.40
2022-08-05T20:28:50.962Z,72.64
2022-08-05T20:31:28.402Z,73.09
2022-08-05T20:34:10.007Z,73.93
2022-08-05T20:36:39.181Z,73.88
2022-08-05T20:39:16.279Z,74.04
2022-08-05T20:41:47.769Z,73.43
2022-08-05T20:44:30.714Z,74.32
2022-08-05T20:47:04.953Z,74.02
2022-08-05T20:49:39.476Z,74.25
2022-08-05T20:52:10.707Z,74.20
2022-08-05T20:54:43.092Z,74.52
2022-08-05T20:57:42.157Z,75.04
2022-08-05T21:00:40.377Z,74.21
2022-08-05T21:03:07.157Z,74.39
2022-08-05T21:05:48.326Z,74.34
2022-08-05T21:08:33.125Z,74.10
2022-08-05T21:11:12.391Z,74.04
2022-08-05T21:13:48.108Z,74.17
2022-08-05T21:16:30.757Z,75.13
2022-08-05T21:19:01.556Z,75.16
2022-08-05T21:21:39.585Z,74.65
2022-08-05T21:24:15.689Z,74.87
2022-08-05T21:26:58.238Z,75.08
2022-08-05T21:29:31.857Z,75.19
2022-08-05T21:32:03.590Z,74.49
2022-08-05T21:34:32.894Z,74.83
2022-08-05T21:37:02.199Z,75.13
2022-08-05T21:39:34.482Z,74.98
2022-08-05T21:42:03.854Z,75.65
2022-08-05T21:44:32.979Z,75.75
2022-08-05T21:47:01.964Z,75.80
2022-08-05T21:50:00.199Z,75.82
2022-08-05T21:52:27.205Z,75.05
2022-08-05T21:55:06.486Z,75.12
2022-08-05T21:57:42.761Z,75.74
2022-08-05T22:00:13.626Z,75.62
2022-08-05T22:02:44.744Z,75.50
2022-08-05T22:05:15.463Z,75.88
2022-08-05T22:07:58.939Z,75.51
2022-08-05T22:10:31.799Z,75.93
2022-08-05T22:13:09.218Z,76.50
2022-08-05T22:16:02.035Z,76.11
2022-08-05T22:18:40.742Z,75.99
2022-08-05T22:21:20.033Z,75.66
2022-08-05T22:24:08.804Z,75.46
2022-08-05T22:27:00.473Z,75.63
2022-08-05T22:29:35.662Z,75.30
2022-08-05T22:32:10.075Z,75.37
2022-08-05T22:34:39.370Z,75.16
2022-08-05T22:37:10.075Z,75.81
2022-08-05T22:39:39.719Z,75.59
2022-08-05T22:42:12.405Z,75.64
2022-08-05T22:44:48.580Z,76.74
2022-08-05T22:47:30.426Z,76.24
2022-08-05T22:50:20.079Z,76.59
2022-08-05T22:52:53.617Z,76.78
2022-08-05T22:55:26.129Z,76.96
2022-08-05T22:57:55.565Z,76.65
2022-08-05T23:00:27.261Z,76.86
2022-08-05T23:02:58.048Z,76.62
2022-08-05T23:05:27.525Z,76.81
2022-08-05T23:07:56.426Z,76.85
2022-08-05T23:10:25.516Z,77.02
2022-08-05T23:12:55.866Z,77.42
2022-08-05T23:15:35.454Z,77.60
2022-08-05T23:18:15.828Z,77.41
2022-08-05T23:20:45.933Z,77.28
2022-08-05T23:23:15.090Z,77.20
2022-08-05T23:25:52.569Z,77.81
2022-08-05T23:28:29.089Z,78.64
2022-08-05T23:31:17.179Z,79.55
2022-08-05T23:34:03.994Z,79.92
2022-08-05T23:36:39.930Z,79.33
2022-08-05T23:39:16.621Z,78.91
2022-08-05T23:41:53.893Z,78.58
2022-08-05T23:44:31.065Z,77.96
2022-08-05T23:47:02.444Z,76.72
2022-08-05T23:49:45.558Z,74.83
2022-08-05T23:52:30.710Z,73.83
2022-08-05T23:55:07.127Z,74.73
2022-08-05T23:57:37.693Z,74.70
